createdAt,value
2022-11-13T00:01:11.392Z,90.70
2022-11-13T00:03:39.835Z,79.27
2022-11-13T00:06:08.588Z,100.43
2022-11-13T00:08:37.913Z,88.83
2022-11-13T00:11:07.813Z,137.57
2022-11-13T00:13:36.440Z,89.13
2022-11-13T00:16:07.217Z,89.10
2022-11-13T00:18:36.608Z,142.77
2022-11-13T00:21:08.747Z,87.67
2022-11-13T00:23:38.664Z,84.70
2022-11-13T00:26:11.939Z,82.07
2022-11-13T00:28:39.989Z,88.70
2022-11-13T00:31:09.323Z,89.23
2022-11-13T00:36:27.222Z,97.10
2022-11-13T00:38:56.986Z,87.60
2022-11-13T00:41:25.495Z,97.67
2022-11-13T00:43:53.477Z,98.67
2022-11-13T00:46:21.484Z,79.60
2022-11-13T00:48:49.448Z,91.07
2022-11-13T00:51:19.521Z,89.50
2022-11-13T00:53:47.536Z,78.77
2022-11-13T00:56:16.925Z,78.60
2022-11-13T00:58:44.894Z,81.03
2022-11-13T01:01:14.639Z,69.17
2022-11-13T01:03:43.193Z,75.13
2022-11-13T01:06:13.582Z,79.90
2022-11-13T01:08:41.897Z,68.73
2022-11-13T01:11:11.506Z,73.17
2022-11-13T01:13:41.416Z,67.93
2022-11-13T01:16:11.475Z,75.10
2022-11-13T01:18:41.234Z,67.70
2022-11-13T01:21:12.288Z,75.33
2022-11-13T01:23:40.843Z,73.73
2022-11-13T01:26:12.735Z,60.03
2022-11-13T01:28:43.022Z,66.53
2022-11-13T01:31:13.483Z,79.83
2022-11-13T01:33:41.493Z,66.80
2022-11-13T01:36:12.774Z,69.17
2022-11-13T01:38:40.824Z,69.37
2022-11-13T01:41:12.188Z,71.43
2022-11-13T01:43:41.495Z,82.53
2022-11-13T01:46:19.070Z,76.00
2022-11-13T01:48:49.520Z,87.40
2022-11-13T01:51:23.597Z,83.77
2022-11-13T01:53:51.824Z,84.90
2022-11-13T01:56:20.368Z,89.90
2022-11-13T01:58:53.085Z,77.27
2022-11-13T02:01:21.171Z,82.33
2022-11-13T02:03:49.167Z,85.37
2022-11-13T02:06:17.775Z,88.30
2022-11-13T02:08:46.269Z,80.67
2022-11-13T02:11:14.792Z,103.60
2022-11-13T02:13:43.310Z,83.87
2022-11-13T02:16:14.232Z,82.77
2022-11-13T02:18:43.289Z,85.83
2022-11-13T02:21:25.919Z,85.77
2022-11-13T02:24:01.376Z,81.70
2022-11-13T02:26:32.319Z,85.10
2022-11-13T02:29:00.267Z,82.80
2022-11-13T02:31:28.280Z,77.03
2022-11-13T02:33:56.264Z,75.33
2022-11-13T02:36:26.925Z,84.63
2022-11-13T02:38:56.433Z,76.50
2022-11-13T02:41:24.427Z,84.30
2022-11-13T02:43:53.852Z,69.90
2022-11-13T02:46:21.807Z,76.80
2022-11-13T02:48:49.777Z,79.50
2022-11-13T02:51:17.742Z,83.47
2022-11-13T02:53:45.730Z,78.87
2022-11-13T02:56:13.710Z,84.63
2022-11-13T02:58:41.851Z,76.03
2022-11-13T03:01:11.201Z,80.17
2022-11-13T03:06:27.328Z,80.13
2022-11-13T03:08:55.279Z,87.37
2022-11-13T03:11:23.323Z,82.13
2022-11-13T03:13:51.240Z,77.67
2022-11-13T03:16:20.856Z,71.03
2022-11-13T03:18:48.816Z,69.40
2022-11-13T03:21:17.138Z,68.47
2022-11-13T03:23:46.065Z,71.07
2022-11-13T03:26:16.579Z,60.23
2022-11-13T03:28:44.873Z,67.30
2022-11-13T03:31:12.975Z,68.83
2022-11-13T03:33:42.793Z,67.33
2022-11-13T03:36:10.879Z,66.00
2022-11-13T03:38:39.310Z,74.10
2022-11-13T03:41:07.268Z,75.60
2022-11-13T03:43:35.310Z,68.40
2022-11-13T03:46:03.271Z,66.30
2022-11-13T03:48:31.517Z,69.50
2022-11-13T03:51:01.529Z,70.40
2022-11-13T03:53:29.614Z,69.90
2022-11-13T03:55:57.594Z,63.17
2022-11-13T03:58:25.793Z,72.90
2022-11-13T04:00:56.190Z,63.10
2022-11-13T04:03:24.221Z,69.50
2022-11-13T04:05:52.533Z,69.37
2022-11-13T04:08:21.857Z,65.30
2022-11-13T04:10:49.854Z,65.23
2022-11-13T04:13:17.823Z,75.20
2022-11-13T04:15:45.775Z,70.77
2022-11-13T04:18:13.792Z,70.00
2022-11-13T04:20:41.766Z,68.73
2022-11-13T04:23:12.635Z,64.20
2022-11-13T04:25:42.032Z,71.00
2022-11-13T04:28:10.616Z,68.83
2022-11-13T04:30:38.994Z,66.07
2022-11-13T04:33:07.654Z,65.60
2022-11-13T04:35:35.927Z,72.27
2022-11-13T04:38:03.929Z,70.43
2022-11-13T04:40:31.965Z,75.93
2022-11-13T04:43:00.321Z,67.60
2022-11-13T04:45:28.529Z,71.47
2022-11-13T04:47:56.489Z,68.37
2022-11-13T04:50:24.962Z,66.60
2022-11-13T04:52:53.022Z,65.67
2022-11-13T04:55:21.083Z,72.03
2022-11-13T04:57:51.524Z,68.17
2022-11-13T05:00:21.437Z,65.50
2022-11-13T05:02:49.389Z,72.13
2022-11-13T05:05:17.561Z,74.40
2022-11-13T05:07:45.538Z,65.77
2022-11-13T05:10:14.000Z,66.27
2022-11-13T05:12:41.949Z,73.80
2022-11-13T05:15:10.328Z,81.43
2022-11-13T05:17:39.661Z,72.83
2022-11-13T05:20:08.811Z,83.00
2022-11-13T05:22:36.801Z,82.33
2022-11-13T05:25:05.121Z,82.27
2022-11-13T05:27:33.096Z,82.50
2022-11-13T05:30:01.053Z,89.47
2022-11-13T05:32:29.032Z,99.40
2022-11-13T05:34:58.335Z,80.73
2022-11-13T05:37:26.301Z,83.00
2022-11-13T05:39:54.233Z,77.23
2022-11-13T05:42:22.175Z,96.87
2022-11-13T05:44:50.134Z,88.40
2022-11-13T05:47:18.107Z,90.97
2022-11-13T05:49:46.271Z,85.93
2022-11-13T05:52:15.650Z,89.87
2022-11-13T05:54:43.581Z,85.70
2022-11-13T05:57:11.525Z,86.83
2022-11-13T05:59:39.522Z,88.90
2022-11-13T06:02:07.533Z,80.33
2022-11-13T06:04:35.822Z,79.60
2022-11-13T06:07:03.791Z,74.83
2022-11-13T06:09:33.103Z,64.77
2022-11-13T06:12:01.110Z,71.57
2022-11-13T06:14:29.056Z,68.40
2022-11-13T06:16:57.030Z,70.50
2022-11-13T06:19:25.044Z,66.60
2022-11-13T06:21:53.038Z,73.00
2022-11-13T06:24:21.032Z,73.83
2022-11-13T06:26:50.345Z,72.27
2022-11-13T06:29:18.372Z,81.47
2022-11-13T06:31:46.486Z,79.80
2022-11-13T06:34:14.454Z,85.80
2022-11-13T06:36:42.434Z,78.13
2022-11-13T06:39:11.113Z,78.47
2022-11-13T06:41:39.706Z,78.70
2022-11-13T06:44:09.234Z,71.97
2022-11-13T06:46:37.192Z,78.10
2022-11-13T06:49:05.226Z,70.10
2022-11-13T06:51:33.624Z,75.27
2022-11-13T06:54:01.581Z,72.90
2022-11-13T06:56:29.565Z,69.27
2022-11-13T06:58:57.680Z,73.60
2022-11-13T07:01:28.194Z,82.97
2022-11-13T07:03:56.235Z,78.83
2022-11-13T07:06:25.600Z,77.37
2022-11-13T07:08:54.057Z,70.03
2022-11-13T07:11:23.559Z,67.27
2022-11-13T07:13:51.964Z,72.23
2022-11-13T07:16:20.290Z,67.70
2022-11-13T07:18:53.943Z,70.33
2022-11-13T07:21:23.146Z,76.80
2022-11-13T07:23:51.792Z,71.87
2022-11-13T07:26:20.414Z,62.73
2022-11-13T07:28:49.061Z,61.07
2022-11-13T07:31:18.479Z,66.23
2022-11-13T07:33:49.291Z,68.67
2022-11-13T07:36:19.110Z,62.40
2022-11-13T07:38:47.050Z,60.43
2022-11-13T07:41:15.001Z,57.50
2022-11-13T07:43:42.941Z,57.97
2022-11-13T07:46:11.157Z,59.37
2022-11-13T07:48:39.140Z,56.30
2022-11-13T07:51:07.262Z,61.63
2022-11-13T07:53:38.984Z,59.67
2022-11-13T07:56:07.694Z,60.13
2022-11-13T07:58:35.708Z,57.27
2022-11-13T08:01:05.143Z,58.77
2022-11-13T08:03:33.762Z,60.50
2022-11-13T08:06:02.837Z,55.80
2022-11-13T08:08:31.118Z,59.00
2022-11-13T08:11:04.318Z,59.13
2022-11-13T08:13:32.321Z,57.73
2022-11-13T08:16:01.263Z,61.07
2022-11-13T08:18:29.752Z,58.43
2022-11-13T08:20:58.244Z,55.20
2022-11-13T08:23:26.187Z,58.83
2022-11-13T08:25:54.170Z,55.03
2022-11-13T08:28:23.511Z,53.27
2022-11-13T08:30:51.622Z,52.20
2022-11-13T08:33:19.545Z,58.23
2022-11-13T08:35:54.552Z,47.83
2022-11-13T08:38:22.616Z,53.63
2022-11-13T08:40:50.834Z,54.53
2022-11-13T08:43:19.513Z,58.50
2022-11-13T08:45:49.054Z,59.37
2022-11-13T08:48:17.042Z,52.73
2022-11-13T08:50:45.299Z,53.57
2022-11-13T08:53:13.290Z,49.87
2022-11-13T08:55:41.229Z,54.47
2022-11-13T08:58:09.795Z,50.83
2022-11-13T09:00:37.732Z,48.40
2022-11-13T09:03:07.254Z,48.77
2022-11-13T09:05:35.227Z,56.13
2022-11-13T09:08:03.645Z,52.43
2022-11-13T09:10:31.624Z,56.07
2022-11-13T09:13:01.620Z,52.33
2022-11-13T09:15:29.918Z,48.40
2022-11-13T09:17:58.684Z,48.93
2022-11-13T09:20:28.459Z,47.13
2022-11-13T09:22:59.980Z,47.10
2022-11-13T09:25:32.837Z,48.80
2022-11-13T09:28:05.926Z,51.63
2022-11-13T09:30:34.402Z,57.77
2022-11-13T09:33:02.799Z,55.27
2022-11-13T09:35:36.764Z,56.90
2022-11-13T09:38:11.414Z,54.60
2022-11-13T09:40:44.967Z,59.60
2022-11-13T09:43:25.471Z,51.90
2022-11-13T09:46:09.111Z,57.90
2022-11-13T09:48:39.640Z,60.43
2022-11-13T09:51:14.232Z,63.17
2022-11-13T09:53:43.848Z,54.37
2022-11-13T09:56:27.635Z,58.33
2022-11-13T09:59:03.199Z,54.73
2022-11-13T10:01:48.523Z,54.80
2022-11-13T10:04:20.274Z,55.33
2022-11-13T10:07:05.088Z,55.40
2022-11-13T10:09:54.034Z,55.97
2022-11-13T10:12:22.998Z,53.00
2022-11-13T10:14:53.875Z,52.27
2022-11-13T10:17:28.054Z,51.47
2022-11-13T10:20:00.037Z,55.43
2022-11-13T10:22:38.058Z,51.90
2022-11-13T10:25:13.230Z,55.77
2022-11-13T10:27:41.495Z,57.60
2022-11-13T10:30:16.052Z,51.00
2022-11-13T10:32:44.861Z,59.00
2022-11-13T10:35:44.540Z,57.27
2022-11-13T10:38:26.651Z,58.53
2022-11-13T10:41:06.463Z,53.57
2022-11-13T10:43:35.113Z,56.80
2022-11-13T10:46:04.611Z,59.47
2022-11-13T10:48:35.633Z,55.77
2022-11-13T10:51:07.104Z,59.77
2022-11-13T10:53:41.305Z,63.63
2022-11-13T10:56:25.056Z,63.37
2022-11-13T10:59:04.005Z,63.87
2022-11-13T11:01:32.099Z,63.37
2022-11-13T11:04:00.123Z,61.37
2022-11-13T11:07:04.655Z,67.00
2022-11-13T11:09:27.403Z,63.03
2022-11-13T11:12:17.009Z,63.80
2022-11-13T11:14:59.028Z,65.30
2022-11-13T11:17:30.972Z,57.00
2022-11-13T11:20:02.436Z,59.27
2022-11-13T11:22:34.812Z,59.53
2022-11-13T11:25:10.140Z,63.60
2022-11-13T11:27:43.494Z,67.90
2022-11-13T11:30:20.591Z,69.07
2022-11-13T11:32:55.524Z,62.37
2022-11-13T11:35:29.116Z,61.83
2022-11-13T11:38:02.369Z,65.03
2022-11-13T11:40:37.190Z,57.97
2022-11-13T11:43:28.027Z,62.73
2022-11-13T11:45:56.069Z,62.13
2022-11-13T11:48:28.089Z,64.83
2022-11-13T11:51:04.302Z,63.27
2022-11-13T11:53:43.081Z,65.27
2022-11-13T11:56:21.303Z,66.40
2022-11-13T11:59:04.562Z,65.67
2022-11-13T12:01:59.494Z,65.00
2022-11-13T12:04:38.684Z,65.30
2022-11-13T12:07:19.004Z,60.93
2022-11-13T12:09:55.084Z,62.73
2022-11-13T12:12:33.661Z,62.07
2022-11-13T12:15:09.201Z,63.87
2022-11-13T12:17:50.179Z,67.37
2022-11-13T12:20:27.707Z,62.00
2022-11-13T12:23:06.478Z,62.53
2022-11-13T12:25:42.732Z,57.40
2022-11-13T12:28:19.101Z,63.43
2022-11-13T12:31:00.990Z,57.43
2022-11-13T12:33:39.994Z,58.67
2022-11-13T12:36:11.762Z,62.77
2022-11-13T12:38:47.642Z,62.23
2022-11-13T12:41:21.742Z,57.93
2022-11-13T12:44:04.614Z,53.37
2022-11-13T12:46:40.744Z,53.47
2022-11-13T12:49:30.394Z,54.17
2022-11-13T12:51:59.831Z,56.33
2022-11-13T12:54:29.909Z,60.47
2022-11-13T12:57:20.877Z,55.33
2022-11-13T12:59:53.774Z,56.00
2022-11-13T13:03:09.497Z,55.53
2022-11-13T13:06:06.159Z,52.40
2022-11-13T13:09:02.278Z,54.63
2022-11-13T13:11:39.729Z,56.87
2022-11-13T13:14:21.154Z,53.97
2022-11-13T13:16:50.587Z,55.50
2022-11-13T13:19:28.574Z,53.67
2022-11-13T13:21:57.160Z,55.07
2022-11-13T13:24:31.838Z,58.27
2022-11-13T13:27:01.397Z,51.70
2022-11-13T13:29:30.932Z,59.47
2022-11-13T13:32:11.708Z,53.27
2022-11-13T13:34:51.703Z,57.07
2022-11-13T13:37:31.131Z,56.27
2022-11-13T13:40:12.372Z,63.97
2022-11-13T13:42:57.672Z,55.97
2022-11-13T13:45:36.352Z,59.37
2022-11-13T13:48:11.675Z,63.57
2022-11-13T13:50:45.235Z,66.87
2022-11-13T13:53:17.254Z,63.63
2022-11-13T13:55:50.861Z,70.13
2022-11-13T13:58:24.809Z,68.47
2022-11-13T14:01:16.974Z,63.37
2022-11-13T14:03:47.100Z,66.67
2022-11-13T14:06:23.486Z,66.40
2022-11-13T14:08:51.614Z,67.23
2022-11-13T14:11:21.645Z,62.63
2022-11-13T14:13:49.678Z,65.37
2022-11-13T14:16:17.826Z,69.37
2022-11-13T14:18:47.206Z,71.07
2022-11-13T14:21:18.422Z,69.67
2022-11-13T14:23:50.657Z,75.57
2022-11-13T14:26:19.580Z,71.07
2022-11-13T14:28:53.884Z,68.70
2022-11-13T14:31:29.952Z,70.60
2022-11-13T14:34:02.632Z,72.20
2022-11-13T14:36:34.124Z,66.87
2022-11-13T14:39:02.619Z,68.47
2022-11-13T14:41:36.229Z,78.53
2022-11-13T14:44:04.947Z,72.10
2022-11-13T14:46:36.276Z,69.80
2022-11-13T14:49:13.172Z,73.97
2022-11-13T14:51:41.362Z,71.93
2022-11-13T14:54:46.814Z,72.33
2022-11-13T14:57:17.664Z,69.97
2022-11-13T14:59:45.756Z,69.03
2022-11-13T15:02:14.484Z,76.30
2022-11-13T15:04:43.892Z,73.97
2022-11-13T15:07:26.628Z,72.23
2022-11-13T15:09:54.780Z,70.73
2022-11-13T15:12:22.810Z,69.43
2022-11-13T15:14:51.488Z,77.07
2022-11-13T15:17:21.995Z,72.20
2022-11-13T15:19:55.133Z,73.07
2022-11-13T15:22:28.419Z,73.37
2022-11-13T15:24:56.969Z,73.60
2022-11-13T15:27:25.231Z,70.47
2022-11-13T15:29:53.248Z,74.60
2022-11-13T15:32:21.315Z,72.27
2022-11-13T15:34:49.318Z,76.63
2022-11-13T15:37:19.067Z,76.37
2022-11-13T15:39:47.138Z,75.30
2022-11-13T15:42:18.451Z,80.93
2022-11-13T15:44:46.459Z,86.03
2022-11-13T15:47:26.931Z,83.43
2022-11-13T15:50:13.944Z,81.40
2022-11-13T15:52:47.320Z,88.13
2022-11-13T15:55:22.055Z,88.67
2022-11-13T15:57:50.573Z,92.00
2022-11-13T16:00:24.782Z,100.00
2022-11-13T16:02:55.541Z,79.10
2022-11-13T16:05:25.516Z,84.90
2022-11-13T16:07:55.475Z,90.30
2022-11-13T16:10:25.847Z,96.10
2022-11-13T16:12:54.151Z,93.53
2022-11-13T16:15:22.333Z,93.97
2022-11-13T16:17:57.359Z,94.97
2022-11-13T16:20:25.784Z,100.33
2022-11-13T16:22:55.198Z,101.17
2022-11-13T16:25:23.881Z,94.20
2022-11-13T16:27:52.774Z,94.40
2022-11-13T16:30:23.013Z,89.60
2022-11-13T16:32:51.031Z,109.03
2022-11-13T16:35:20.966Z,91.33
2022-11-13T16:37:49.030Z,103.93
2022-11-13T16:40:21.655Z,96.27
2022-11-13T16:42:49.892Z,104.70
2022-11-13T16:45:18.152Z,98.13
2022-11-13T16:47:46.573Z,103.07
2022-11-13T16:50:16.127Z,103.63
2022-11-13T16:52:44.212Z,92.13
2022-11-13T16:55:12.374Z,110.37
2022-11-13T16:57:42.030Z,98.37
2022-11-13T17:00:13.092Z,117.87
2022-11-13T17:02:41.322Z,104.43
2022-11-13T17:05:13.822Z,110.53
2022-11-13T17:07:42.070Z,110.17
2022-11-13T17:13:02.857Z,107.30
2022-11-13T17:15:32.371Z,107.07
2022-11-13T17:18:00.419Z,106.00
2022-11-13T17:20:28.520Z,106.20
2022-11-13T17:22:56.550Z,105.90
2022-11-13T17:25:26.811Z,111.97
2022-11-13T17:27:55.369Z,109.67
2022-11-13T17:30:24.837Z,131.53
2022-11-13T17:32:52.885Z,116.53
2022-11-13T17:35:20.909Z,114.13
2022-11-13T17:37:48.930Z,119.60
2022-11-13T17:40:17.590Z,113.17
2022-11-13T17:42:47.986Z,118.60
2022-11-13T17:45:16.701Z,130.00
2022-11-13T17:47:46.142Z,115.63
2022-11-13T17:50:15.104Z,109.33
2022-11-13T17:52:43.272Z,114.83
2022-11-13T17:55:14.095Z,119.73
2022-11-13T17:57:42.285Z,128.87
2022-11-13T18:00:11.605Z,109.03
2022-11-13T18:02:40.107Z,105.70
2022-11-13T18:05:10.308Z,107.47
2022-11-13T18:07:40.099Z,112.37
2022-11-13T18:10:10.807Z,103.77
2022-11-13T18:12:38.901Z,102.57
2022-11-13T18:15:07.529Z,100.50
2022-11-13T18:17:35.588Z,102.23
2022-11-13T18:20:03.587Z,108.63
2022-11-13T18:22:32.971Z,103.20
2022-11-13T18:25:01.567Z,109.43
2022-11-13T18:27:29.671Z,118.57
2022-11-13T18:29:57.792Z,114.93
2022-11-13T18:32:25.805Z,117.37
2022-11-13T18:34:54.277Z,106.23
2022-11-13T18:37:22.353Z,105.37
2022-11-13T18:39:51.803Z,105.23
2022-11-13T18:42:19.980Z,114.70
2022-11-13T18:44:48.004Z,102.77
2022-11-13T18:47:16.017Z,107.77
2022-11-13T18:49:44.002Z,99.63
2022-11-13T18:52:12.121Z,106.60
2022-11-13T18:54:40.172Z,107.70
2022-11-13T18:57:09.577Z,106.40
2022-11-13T18:59:37.587Z,98.93
2022-11-13T19:02:05.673Z,96.70
2022-11-13T19:04:36.310Z,114.07
2022-11-13T19:07:04.402Z,115.60
2022-11-13T19:09:32.541Z,112.07
2022-11-13T19:12:00.544Z,109.03
2022-11-13T19:14:29.965Z,119.67
2022-11-13T19:16:57.926Z,112.87
2022-11-13T19:19:25.992Z,110.17
2022-11-13T19:21:54.014Z,116.30
2022-11-13T19:24:22.033Z,107.67
2022-11-13T19:26:50.043Z,120.93
2022-11-13T19:29:18.235Z,120.80
2022-11-13T19:31:48.790Z,116.17
2022-11-13T19:34:16.848Z,127.03
2022-11-13T19:36:46.433Z,115.10
2022-11-13T19:39:15.628Z,105.23
2022-11-13T19:41:43.687Z,118.53
2022-11-13T19:44:11.826Z,104.50
2022-11-13T19:46:39.858Z,113.43
2022-11-13T19:49:09.390Z,107.43
2022-11-13T19:51:37.390Z,108.63
2022-11-13T19:54:05.551Z,118.47
2022-11-13T19:56:33.618Z,114.20
2022-11-13T19:59:01.692Z,118.77
2022-11-13T20:01:31.983Z,110.97
2022-11-13T20:04:02.031Z,104.47
2022-11-13T20:06:33.667Z,106.87
2022-11-13T20:09:02.709Z,101.93
2022-11-13T20:11:31.291Z,115.87
2022-11-13T20:13:59.647Z,99.40
2022-11-13T20:16:27.891Z,101.23
2022-11-13T20:18:58.348Z,101.77
2022-11-13T20:21:26.926Z,98.03
2022-11-13T20:23:59.241Z,87.63
2022-11-13T20:26:27.918Z,95.40
2022-11-13T20:28:55.996Z,87.67
2022-11-13T20:31:25.670Z,104.20
2022-11-13T20:33:55.918Z,93.63
2022-11-13T20:36:25.140Z,101.67
2022-11-13T20:38:54.660Z,95.67
2022-11-13T20:41:25.015Z,93.57
2022-11-13T20:43:55.732Z,94.07
2022-11-13T20:46:23.779Z,88.73
2022-11-13T20:48:51.873Z,88.90
2022-11-13T20:51:21.720Z,85.30
2022-11-13T20:53:50.396Z,88.13
2022-11-13T20:56:19.484Z,76.00
2022-11-13T20:58:49.441Z,74.33
2022-11-13T21:01:19.064Z,75.60
2022-11-13T21:03:47.950Z,70.20
2022-11-13T21:06:18.195Z,75.90
2022-11-13T21:08:46.938Z,76.97
2022-11-13T21:11:16.171Z,81.70
2022-11-13T21:13:44.183Z,74.87
2022-11-13T21:16:13.647Z,85.40
2022-11-13T21:18:41.774Z,83.43
2022-11-13T21:21:11.888Z,84.10
2022-11-13T21:23:39.967Z,75.13
2022-11-13T21:26:08.882Z,73.83
2022-11-13T21:28:37.477Z,77.03
2022-11-13T21:31:07.965Z,76.83
2022-11-13T21:33:43.365Z,88.37
2022-11-13T21:36:13.460Z,75.67
2022-11-13T21:38:42.501Z,75.50
2022-11-13T21:41:24.754Z,83.53
2022-11-13T21:43:56.819Z,76.37
2022-11-13T21:46:26.444Z,75.37
2022-11-13T21:48:58.857Z,76.27
2022-11-13T21:51:27.011Z,82.80
2022-11-13T21:53:55.295Z,84.17
2022-11-13T21:56:23.905Z,91.77
2022-11-13T21:58:51.868Z,93.70
2022-11-13T22:01:20.243Z,88.53
2022-11-13T22:03:48.220Z,88.27
2022-11-13T22:06:20.172Z,95.27
2022-11-13T22:08:54.662Z,91.37
2022-11-13T22:11:22.986Z,95.13
2022-11-13T22:13:50.953Z,93.97
2022-11-13T22:16:19.198Z,92.30
2022-11-13T22:18:47.312Z,86.53
2022-11-13T22:21:17.650Z,85.73
2022-11-13T22:23:45.602Z,80.13
2022-11-13T22:26:15.035Z,81.73
2022-11-13T22:28:44.752Z,76.43
2022-11-13T22:31:16.371Z,83.30
2022-11-13T22:33:48.765Z,80.13
2022-11-13T22:36:21.645Z,83.87
2022-11-13T22:38:50.334Z,87.57
2022-11-13T22:41:23.350Z,92.67
2022-11-13T22:43:53.229Z,83.73
2022-11-13T22:46:23.699Z,84.80
2022-11-13T22:48:53.321Z,84.63
2022-11-13T22:51:24.485Z,74.07
2022-11-13T22:53:53.625Z,80.47
2022-11-13T22:56:22.855Z,80.17
2022-11-13T22:58:51.042Z,73.80
2022-11-13T23:01:20.938Z,74.50
2022-11-13T23:03:50.271Z,77.10
2022-11-13T23:06:20.556Z,80.67
2022-11-13T23:08:50.625Z,83.37
2022-11-13T23:11:20.512Z,76.50
2022-11-13T23:13:50.538Z,72.90
2022-11-13T23:16:19.170Z,72.47
2022-11-13T23:18:47.684Z,74.07
2022-11-13T23:21:16.158Z,80.90
2022-11-13T23:23:44.311Z,82.53
2022-11-13T23:26:14.768Z,91.90
2022-11-13T23:28:42.908Z,83.43
2022-11-13T23:31:11.457Z,83.40
2022-11-13T23:33:40.613Z,77.97
2022-11-13T23:36:10.156Z,90.70
2022-11-13T23:38:38.232Z,82.50
2022-11-13T23:41:06.622Z,89.10
2022-11-13T23:44:07.094Z,79.67
2022-11-13T23:46:23.870Z,81.60
2022-11-13T23:48:51.804Z,87.73
2022-11-13T23:51:19.762Z,122.83
2022-11-13T23:53:47.746Z,100.53
2022-11-13T23:56:15.737Z,82.33
2022-11-13T23:58:45.139Z,82.10
